sensor_id;sensor_type;location;lat;lon;timestamp;P1;durP1;ratioP1;P2;durP2;ratioP2
74448;SDS011;62878;51.026;4.472;2022-11-14T00:02:23;8.75;;;6.32;;
74448;SDS011;62878;51.026;4.472;2022-11-14T00:04:49;8.88;;;6.35;;
74448;SDS011;62878;51.026;4.472;2022-11-14T00:07:14;10.85;;;6.75;;
74448;SDS011;62878;51.026;4.472;2022-11-14T00:09:40;12.65;;;7.10;;
74448;SDS011;62878;51.026;4.472;2022-11-14T00:12:09;9.43;;;6.28;;
74448;SDS011;62878;51.026;4.472;2022-11-14T00:14:37;10.10;;;6.75;;
74448;SDS011;62878;51.026;4.472;2022-11-14T00:17:03;10.10;;;7.13;;
74448;SDS011;62878;51.026;4.472;2022-11-14T00:19:29;9.35;;;7.63;;
74448;SDS011;62878;51.026;4.472;2022-11-14T00:21:54;12.75;;;8.10;;
74448;SDS011;62878;51.026;4.472;2022-11-14T00:24:19;10.25;;;7.18;;
74448;SDS011;62878;51.026;4.472;2022-11-14T00:26:45;10.23;;;7.30;;
74448;SDS011;62878;51.026;4.472;2022-11-14T00:29:11;10.15;;;7.07;;
74448;SDS011;62878;51.026;4.472;2022-11-14T00:31:37;11.18;;;7.25;;
74448;SDS011;62878;51.026;4.472;2022-11-14T00:34:03;10.68;;;7.30;;
74448;SDS011;62878;51.026;4.472;2022-11-14T00:36:28;14.23;;;6.97;;
74448;SDS011;62878;51.026;4.472;2022-11-14T00:38:54;9.32;;;6.95;;
74448;SDS011;62878;51.026;4.472;2022-11-14T00:41:19;9.82;;;6.88;;
74448;SDS011;62878;51.026;4.472;2022-11-14T00:43:45;11.07;;;7.60;;
74448;SDS011;62878;51.026;4.472;2022-11-14T00:46:10;10.32;;;6.75;;
74448;SDS011;62878;51.026;4.472;2022-11-14T00:48:36;12.30;;;8.50;;
74448;SDS011;62878;51.026;4.472;2022-11-14T00:51:01;11.38;;;7.70;;
74448;SDS011;62878;51.026;4.472;2022-11-14T00:53:26;10.32;;;6.82;;
74448;SDS011;62878;51.026;4.472;2022-11-14T00:55:52;10.25;;;7.05;;
74448;SDS011;62878;51.026;4.472;2022-11-14T00:58:17;9.10;;;7.20;;
74448;SDS011;62878;51.026;4.472;2022-11-14T01:00:42;12.98;;;7.63;;
74448;SDS011;62878;51.026;4.472;2022-11-14T01:03:07;10.55;;;7.22;;
74448;SDS011;62878;51.026;4.472;2022-11-14T01:05:33;8.57;;;7.28;;
74448;SDS011;62878;51.026;4.472;2022-11-14T01:07:58;14.52;;;7.53;;
74448;SDS011;62878;51.026;4.472;2022-11-14T01:10:23;11.95;;;8.50;;
74448;SDS011;62878;51.026;4.472;2022-11-14T01:12:49;11.68;;;7.15;;
74448;SDS011;62878;51.026;4.472;2022-11-14T01:15:14;10.07;;;6.80;;
74448;SDS011;62878;51.026;4.472;2022-11-14T01:17:40;9.95;;;6.85;;
74448;SDS011;62878;51.026;4.472;2022-11-14T01:20:05;11.73;;;7.28;;
74448;SDS011;62878;51.026;4.472;2022-11-14T01:22:31;10.73;;;7.60;;
74448;SDS011;62878;51.026;4.472;2022-11-14T01:24:56;9.65;;;6.97;;
74448;SDS011;62878;51.026;4.472;2022-11-14T01:27:23;9.63;;;6.85;;
74448;SDS011;62878;51.026;4.472;2022-11-14T01:29:49;10.32;;;7.07;;
74448;SDS011;62878;51.026;4.472;2022-11-14T01:32:14;11.35;;;6.72;;
74448;SDS011;62878;51.026;4.472;2022-11-14T01:34:39;10.98;;;7.88;;
74448;SDS011;62878;51.026;4.472;2022-11-14T01:37:05;9.57;;;7.10;;
74448;SDS011;62878;51.026;4.472;2022-11-14T01:39:30;10.80;;;7.60;;
74448;SDS011;62878;51.026;4.472;2022-11-14T01:41:55;9.32;;;7.03;;
74448;SDS011;62878;51.026;4.472;2022-11-14T01:47:11;10.20;;;7.18;;
74448;SDS011;62878;51.026;4.472;2022-11-14T01:49:40;9.63;;;7.20;;
74448;SDS011;62878;51.026;4.472;2022-11-14T01:52:09;11.75;;;7.85;;
74448;SDS011;62878;51.026;4.472;2022-11-14T01:54:40;10.60;;;7.25;;
74448;SDS011;62878;51.026;4.472;2022-11-14T01:57:08;9.15;;;6.82;;
74448;SDS011;62878;51.026;4.472;2022-11-14T01:59:37;10.40;;;7.82;;
74448;SDS011;62878;51.026;4.472;2022-11-14T02:02:06;7.68;;;6.90;;
74448;SDS011;62878;51.026;4.472;2022-11-14T02:04:38;10.90;;;7.22;;
74448;SDS011;62878;51.026;4.472;2022-11-14T02:07:07;10.75;;;7.13;;
74448;SDS011;62878;51.026;4.472;2022-11-14T02:09:34;11.50;;;8.20;;
74448;SDS011;62878;51.026;4.472;2022-11-14T02:12:02;9.93;;;7.43;;
74448;SDS011;62878;51.026;4.472;2022-11-14T02:14:29;7.38;;;6.57;;
74448;SDS011;62878;51.026;4.472;2022-11-14T02:16:55;9.27;;;6.90;;
74448;SDS011;62878;51.026;4.472;2022-11-14T02:19:21;11.57;;;7.75;;
74448;SDS011;62878;51.026;4.472;2022-11-14T02:21:46;8.73;;;6.43;;
74448;SDS011;62878;51.026;4.472;2022-11-14T02:27:03;11.13;;;7.05;;
74448;SDS011;62878;51.026;4.472;2022-11-14T02:29:30;9.27;;;6.25;;
74448;SDS011;62878;51.026;4.472;2022-11-14T02:31:57;12.00;;;7.43;;
74448;SDS011;62878;51.026;4.472;2022-11-14T02:34:22;10.23;;;6.90;;
74448;SDS011;62878;51.026;4.472;2022-11-14T02:36:47;11.35;;;7.30;;
74448;SDS011;62878;51.026;4.472;2022-11-14T02:39:13;9.45;;;6.55;;
74448;SDS011;62878;51.026;4.472;2022-11-14T02:41:38;9.60;;;6.97;;
74448;SDS011;62878;51.026;4.472;2022-11-14T02:44:03;9.77;;;6.35;;
74448;SDS011;62878;51.026;4.472;2022-11-14T02:46:29;7.85;;;6.28;;
74448;SDS011;62878;51.026;4.472;2022-11-14T02:48:54;8.20;;;6.13;;
74448;SDS011;62878;51.026;4.472;2022-11-14T02:51:19;8.70;;;6.75;;
74448;SDS011;62878;51.026;4.472;2022-11-14T02:53:44;11.10;;;7.20;;
74448;SDS011;62878;51.026;4.472;2022-11-14T02:56:10;9.95;;;6.50;;
74448;SDS011;62878;51.026;4.472;2022-11-14T02:58:35;15.77;;;7.10;;
74448;SDS011;62878;51.026;4.472;2022-11-14T03:01:00;9.65;;;7.05;;
74448;SDS011;62878;51.026;4.472;2022-11-14T03:03:26;8.88;;;6.93;;
74448;SDS011;62878;51.026;4.472;2022-11-14T03:05:51;8.75;;;6.32;;
74448;SDS011;62878;51.026;4.472;2022-11-14T03:08:17;10.07;;;6.90;;
74448;SDS011;62878;51.026;4.472;2022-11-14T03:10:44;10.85;;;7.20;;
74448;SDS011;62878;51.026;4.472;2022-11-14T03:13:10;10.45;;;6.55;;
74448;SDS011;62878;51.026;4.472;2022-11-14T03:15:35;10.52;;;6.63;;
74448;SDS011;62878;51.026;4.472;2022-11-14T03:18:01;11.70;;;7.00;;
74448;SDS011;62878;51.026;4.472;2022-11-14T03:20:26;9.98;;;6.97;;
74448;SDS011;62878;51.026;4.472;2022-11-14T03:22:52;7.32;;;5.60;;
74448;SDS011;62878;51.026;4.472;2022-11-14T03:25:17;7.43;;;5.63;;
74448;SDS011;62878;51.026;4.472;2022-11-14T03:27:42;14.25;;;6.60;;
74448;SDS011;62878;51.026;4.472;2022-11-14T03:30:08;8.73;;;6.45;;
74448;SDS011;62878;51.026;4.472;2022-11-14T03:32:34;9.88;;;6.25;;
74448;SDS011;62878;51.026;4.472;2022-11-14T03:34:59;7.70;;;6.03;;
74448;SDS011;62878;51.026;4.472;2022-11-14T03:37:24;10.77;;;7.68;;
74448;SDS011;62878;51.026;4.472;2022-11-14T03:39:49;8.63;;;6.45;;
74448;SDS011;62878;51.026;4.472;2022-11-14T03:42:15;9.70;;;7.45;;
74448;SDS011;62878;51.026;4.472;2022-11-14T03:44:40;9.50;;;6.88;;
74448;SDS011;62878;51.026;4.472;2022-11-14T03:47:05;10.38;;;6.68;;
74448;SDS011;62878;51.026;4.472;2022-11-14T03:49:31;8.65;;;6.63;;
74448;SDS011;62878;51.026;4.472;2022-11-14T03:51:56;9.38;;;6.95;;
74448;SDS011;62878;51.026;4.472;2022-11-14T03:54:21;7.50;;;6.78;;
74448;SDS011;62878;51.026;4.472;2022-11-14T03:56:47;9.65;;;6.70;;
74448;SDS011;62878;51.026;4.472;2022-11-14T03:59:12;7.65;;;6.53;;
74448;SDS011;62878;51.026;4.472;2022-11-14T04:01:37;11.63;;;7.20;;
74448;SDS011;62878;51.026;4.472;2022-11-14T04:04:03;9.23;;;7.07;;
74448;SDS011;62878;51.026;4.472;2022-11-14T04:06:28;8.13;;;6.72;;
74448;SDS011;62878;51.026;4.472;2022-11-14T04:08:53;8.25;;;6.72;;
74448;SDS011;62878;51.026;4.472;2022-11-14T04:11:20;9.40;;;6.70;;
74448;SDS011;62878;51.026;4.472;2022-11-14T04:13:46;11.13;;;6.80;;
74448;SDS011;62878;51.026;4.472;2022-11-14T04:16:11;8.65;;;6.80;;
74448;SDS011;62878;51.026;4.472;2022-11-14T04:18:36;9.75;;;6.90;;
74448;SDS011;62878;51.026;4.472;2022-11-14T04:21:02;9.85;;;7.07;;
74448;SDS011;62878;51.026;4.472;2022-11-14T04:23:27;10.88;;;7.00;;
74448;SDS011;62878;51.026;4.472;2022-11-14T04:25:52;8.75;;;6.60;;
74448;SDS011;62878;51.026;4.472;2022-11-14T04:28:18;9.90;;;6.57;;
74448;SDS011;62878;51.026;4.472;2022-11-14T04:30:43;8.98;;;6.45;;
74448;SDS011;62878;51.026;4.472;2022-11-14T04:33:11;8.10;;;6.57;;
74448;SDS011;62878;51.026;4.472;2022-11-14T04:35:37;9.05;;;6.72;;
74448;SDS011;62878;51.026;4.472;2022-11-14T04:38:02;6.93;;;5.95;;
74448;SDS011;62878;51.026;4.472;2022-11-14T04:40:28;9.00;;;6.68;;
74448;SDS011;62878;51.026;4.472;2022-11-14T04:42:53;7.60;;;5.47;;
74448;SDS011;62878;51.026;4.472;2022-11-14T04:45:18;9.18;;;7.07;;
74448;SDS011;62878;51.026;4.472;2022-11-14T04:47:44;9.85;;;6.90;;
74448;SDS011;62878;51.026;4.472;2022-11-14T04:50:09;10.60;;;7.10;;
74448;SDS011;62878;51.026;4.472;2022-11-14T04:52:35;8.55;;;6.50;;
74448;SDS011;62878;51.026;4.472;2022-11-14T04:55:00;10.35;;;7.13;;
74448;SDS011;62878;51.026;4.472;2022-11-14T04:57:26;11.27;;;6.70;;
74448;SDS011;62878;51.026;4.472;2022-11-14T04:59:51;7.80;;;5.95;;
74448;SDS011;62878;51.026;4.472;2022-11-14T05:02:16;10.82;;;6.32;;
74448;SDS011;62878;51.026;4.472;2022-11-14T05:04:41;9.43;;;6.78;;
74448;SDS011;62878;51.026;4.472;2022-11-14T05:07:08;9.48;;;6.35;;
74448;SDS011;62878;51.026;4.472;2022-11-14T05:09:34;8.65;;;6.68;;
74448;SDS011;62878;51.026;4.472;2022-11-14T05:12:01;8.63;;;6.60;;
74448;SDS011;62878;51.026;4.472;2022-11-14T05:14:26;7.80;;;6.13;;
74448;SDS011;62878;51.026;4.472;2022-11-14T05:16:52;9.98;;;6.53;;
74448;SDS011;62878;51.026;4.472;2022-11-14T05:19:17;7.25;;;6.22;;
74448;SDS011;62878;51.026;4.472;2022-11-14T05:21:42;10.10;;;6.35;;
74448;SDS011;62878;51.026;4.472;2022-11-14T05:24:08;8.85;;;6.45;;
74448;SDS011;62878;51.026;4.472;2022-11-14T05:26:33;8.32;;;6.72;;
74448;SDS011;62878;51.026;4.472;2022-11-14T05:28:58;9.38;;;7.15;;
74448;SDS011;62878;51.026;4.472;2022-11-14T05:31:23;9.07;;;6.57;;
74448;SDS011;62878;51.026;4.472;2022-11-14T05:33:49;8.73;;;6.10;;
74448;SDS011;62878;51.026;4.472;2022-11-14T05:36:15;8.50;;;6.43;;
74448;SDS011;62878;51.026;4.472;2022-11-14T05:38:41;9.80;;;6.70;;
74448;SDS011;62878;51.026;4.472;2022-11-14T05:41:07;10.23;;;6.63;;
74448;SDS011;62878;51.026;4.472;2022-11-14T05:43:35;9.15;;;6.53;;
74448;SDS011;62878;51.026;4.472;2022-11-14T05:46:04;7.97;;;6.13;;
74448;SDS011;62878;51.026;4.472;2022-11-14T05:48:30;9.75;;;6.65;;
74448;SDS011;62878;51.026;4.472;2022-11-14T05:50:56;11.07;;;6.80;;
74448;SDS011;62878;51.026;4.472;2022-11-14T05:53:25;10.18;;;6.80;;
74448;SDS011;62878;51.026;4.472;2022-11-14T05:55:51;8.38;;;6.30;;
74448;SDS011;62878;51.026;4.472;2022-11-14T05:58:17;9.68;;;6.57;;
74448;SDS011;62878;51.026;4.472;2022-11-14T06:00:42;9.20;;;6.47;;
74448;SDS011;62878;51.026;4.472;2022-11-14T06:03:07;11.88;;;6.88;;
74448;SDS011;62878;51.026;4.472;2022-11-14T06:05:33;8.85;;;6.32;;
74448;SDS011;62878;51.026;4.472;2022-11-14T06:07:59;8.18;;;6.20;;
74448;SDS011;62878;51.026;4.472;2022-11-14T06:10:25;8.52;;;6.28;;
74448;SDS011;62878;51.026;4.472;2022-11-14T06:12:51;7.95;;;5.95;;
74448;SDS011;62878;51.026;4.472;2022-11-14T06:15:17;8.80;;;5.53;;
74448;SDS011;62878;51.026;4.472;2022-11-14T06:17:42;9.98;;;6.60;;
74448;SDS011;62878;51.026;4.472;2022-11-14T06:20:08;10.05;;;7.07;;
74448;SDS011;62878;51.026;4.472;2022-11-14T06:22:33;9.68;;;6.68;;
74448;SDS011;62878;51.026;4.472;2022-11-14T06:25:00;8.45;;;6.32;;
74448;SDS011;62878;51.026;4.472;2022-11-14T06:27:25;9.98;;;6.07;;
74448;SDS011;62878;51.026;4.472;2022-11-14T06:29:51;9.35;;;6.00;;
74448;SDS011;62878;51.026;4.472;2022-11-14T06:32:16;9.82;;;6.55;;
74448;SDS011;62878;51.026;4.472;2022-11-14T06:34:42;11.40;;;7.22;;
74448;SDS011;62878;51.026;4.472;2022-11-14T06:37:08;8.43;;;6.07;;
74448;SDS011;62878;51.026;4.472;2022-11-14T06:39:33;11.57;;;6.57;;
74448;SDS011;62878;51.026;4.472;2022-11-14T06:41:58;9.80;;;6.45;;
74448;SDS011;62878;51.026;4.472;2022-11-14T06:44:23;7.93;;;5.95;;
74448;SDS011;62878;51.026;4.472;2022-11-14T06:46:49;9.88;;;6.72;;
74448;SDS011;62878;51.026;4.472;2022-11-14T06:49:14;7.55;;;5.97;;
74448;SDS011;62878;51.026;4.472;2022-11-14T06:51:39;8.90;;;6.32;;
74448;SDS011;62878;51.026;4.472;2022-11-14T06:54:05;10.63;;;7.22;;
74448;SDS011;62878;51.026;4.472;2022-11-14T06:56:30;9.65;;;6.90;;
74448;SDS011;62878;51.026;4.472;2022-11-14T06:58:55;10.30;;;6.85;;
74448;SDS011;62878;51.026;4.472;2022-11-14T07:01:22;9.82;;;6.65;;
74448;SDS011;62878;51.026;4.472;2022-11-14T07:03:50;8.43;;;5.55;;
74448;SDS011;62878;51.026;4.472;2022-11-14T07:06:17;11.60;;;7.00;;
74448;SDS011;62878;51.026;4.472;2022-11-14T07:08:43;8.55;;;5.40;;
74448;SDS011;62878;51.026;4.472;2022-11-14T07:11:10;8.43;;;5.80;;
74448;SDS011;62878;51.026;4.472;2022-11-14T07:13:36;9.88;;;6.13;;
74448;SDS011;62878;51.026;4.472;2022-11-14T07:16:03;10.50;;;6.25;;
74448;SDS011;62878;51.026;4.472;2022-11-14T07:18:29;8.80;;;6.13;;
74448;SDS011;62878;51.026;4.472;2022-11-14T07:20:56;9.35;;;6.63;;
74448;SDS011;62878;51.026;4.472;2022-11-14T07:23:27;8.45;;;5.55;;
74448;SDS011;62878;51.026;4.472;2022-11-14T07:25:52;9.65;;;6.63;;
74448;SDS011;62878;51.026;4.472;2022-11-14T07:28:19;7.88;;;5.38;;
74448;SDS011;62878;51.026;4.472;2022-11-14T07:30:44;9.63;;;5.68;;
74448;SDS011;62878;51.026;4.472;2022-11-14T07:33:10;9.77;;;6.18;;
74448;SDS011;62878;51.026;4.472;2022-11-14T07:35:37;8.93;;;5.68;;
74448;SDS011;62878;51.026;4.472;2022-11-14T07:38:03;10.95;;;6.45;;
74448;SDS011;62878;51.026;4.472;2022-11-14T07:40:29;8.50;;;6.13;;
74448;SDS011;62878;51.026;4.472;2022-11-14T07:43:00;6.90;;;5.82;;
74448;SDS011;62878;51.026;4.472;2022-11-14T07:45:27;6.82;;;5.45;;
74448;SDS011;62878;51.026;4.472;2022-11-14T07:47:57;12.30;;;5.80;;
74448;SDS011;62878;51.026;4.472;2022-11-14T07:50:24;9.48;;;5.55;;
74448;SDS011;62878;51.026;4.472;2022-11-14T07:52:53;6.97;;;5.65;;
74448;SDS011;62878;51.026;4.472;2022-11-14T07:55:19;7.70;;;5.40;;
74448;SDS011;62878;51.026;4.472;2022-11-14T07:57:45;7.93;;;5.68;;
74448;SDS011;62878;51.026;4.472;2022-11-14T08:00:11;8.88;;;5.55;;
74448;SDS011;62878;51.026;4.472;2022-11-14T08:02:37;7.93;;;6.10;;
74448;SDS011;62878;51.026;4.472;2022-11-14T08:05:02;7.18;;;5.55;;
74448;SDS011;62878;51.026;4.472;2022-11-14T08:07:28;7.80;;;5.50;;
74448;SDS011;62878;51.026;4.472;2022-11-14T08:09:53;7.78;;;5.43;;
74448;SDS011;62878;51.026;4.472;2022-11-14T08:12:19;6.57;;;5.15;;
74448;SDS011;62878;51.026;4.472;2022-11-14T08:14:44;8.43;;;5.38;;
74448;SDS011;62878;51.026;4.472;2022-11-14T08:17:09;7.82;;;5.40;;
74448;SDS011;62878;51.026;4.472;2022-11-14T08:19:35;9.00;;;5.43;;
74448;SDS011;62878;51.026;4.472;2022-11-14T08:22:00;9.95;;;4.97;;
74448;SDS011;62878;51.026;4.472;2022-11-14T08:24:25;7.82;;;5.78;;
74448;SDS011;62878;51.026;4.472;2022-11-14T08:26:51;7.90;;;5.43;;
74448;SDS011;62878;51.026;4.472;2022-11-14T08:29:16;8.45;;;5.85;;
74448;SDS011;62878;51.026;4.472;2022-11-14T08:31:41;7.93;;;5.70;;
74448;SDS011;62878;51.026;4.472;2022-11-14T08:34:07;6.80;;;5.43;;
74448;SDS011;62878;51.026;4.472;2022-11-14T08:36:33;7.70;;;5.22;;
74448;SDS011;62878;51.026;4.472;2022-11-14T08:38:59;9.30;;;5.43;;
74448;SDS011;62878;51.026;4.472;2022-11-14T08:41:24;10.07;;;6.10;;
74448;SDS011;62878;51.026;4.472;2022-11-14T08:43:49;5.82;;;4.65;;
74448;SDS011;62878;51.026;4.472;2022-11-14T08:46:15;6.45;;;5.30;;
74448;SDS011;62878;51.026;4.472;2022-11-14T08:48:40;11.13;;;5.85;;
74448;SDS011;62878;51.026;4.472;2022-11-14T08:51:06;7.63;;;5.22;;
74448;SDS011;62878;51.026;4.472;2022-11-14T08:53:32;6.40;;;5.13;;
74448;SDS011;62878;51.026;4.472;2022-11-14T08:55:58;5.72;;;4.93;;
74448;SDS011;62878;51.026;4.472;2022-11-14T08:58:25;9.65;;;5.70;;
74448;SDS011;62878;51.026;4.472;2022-11-14T09:00:52;7.15;;;4.55;;
74448;SDS011;62878;51.026;4.472;2022-11-14T09:03:18;7.47;;;5.53;;
74448;SDS011;62878;51.026;4.472;2022-11-14T09:05:43;6.45;;;4.80;;
74448;SDS011;62878;51.026;4.472;2022-11-14T09:08:14;8.45;;;5.35;;
74448;SDS011;62878;51.026;4.472;2022-11-14T09:10:40;7.40;;;4.75;;
74448;SDS011;62878;51.026;4.472;2022-11-14T09:13:05;7.18;;;4.97;;
74448;SDS011;62878;51.026;4.472;2022-11-14T09:15:31;6.85;;;5.10;;
74448;SDS011;62878;51.026;4.472;2022-11-14T09:17:57;7.47;;;5.20;;
74448;SDS011;62878;51.026;4.472;2022-11-14T09:20:23;6.45;;;4.70;;
74448;SDS011;62878;51.026;4.472;2022-11-14T09:22:49;9.60;;;4.78;;
74448;SDS011;62878;51.026;4.472;2022-11-14T09:25:17;8.85;;;5.25;;
74448;SDS011;62878;51.026;4.472;2022-11-14T09:27:43;8.40;;;4.88;;
74448;SDS011;62878;51.026;4.472;2022-11-14T09:30:09;7.18;;;5.00;;
74448;SDS011;62878;51.026;4.472;2022-11-14T09:32:34;7.65;;;4.38;;
74448;SDS011;62878;51.026;4.472;2022-11-14T09:35:00;5.85;;;4.47;;
74448;SDS011;62878;51.026;4.472;2022-11-14T09:37:25;6.28;;;4.55;;
74448;SDS011;62878;51.026;4.472;2022-11-14T09:39:50;5.93;;;4.75;;
74448;SDS011;62878;51.026;4.472;2022-11-14T09:45:26;6.03;;;4.22;;
74448;SDS011;62878;51.026;4.472;2022-11-14T09:47:53;5.35;;;4.15;;
74448;SDS011;62878;51.026;4.472;2022-11-14T09:50:36;9.13;;;5.32;;
74448;SDS011;62878;51.026;4.472;2022-11-14T09:53:28;6.88;;;4.82;;
74448;SDS011;62878;51.026;4.472;2022-11-14T09:55:57;7.40;;;4.43;;
74448;SDS011;62878;51.026;4.472;2022-11-14T09:58:23;7.10;;;4.20;;
74448;SDS011;62878;51.026;4.472;2022-11-14T10:00:56;6.78;;;5.05;;
74448;SDS011;62878;51.026;4.472;2022-11-14T10:06:29;6.10;;;3.58;;
74448;SDS011;62878;51.026;4.472;2022-11-14T10:11:37;6.65;;;3.92;;
74448;SDS011;62878;51.026;4.472;2022-11-14T10:19:44;6.65;;;4.15;;
74448;SDS011;62878;51.026;4.472;2022-11-14T10:39:10;3.38;;;2.13;;
74448;SDS011;62878;51.026;4.472;2022-11-14T10:41:43;5.53;;;3.20;;
74448;SDS011;62878;51.026;4.472;2022-11-14T10:44:10;6.13;;;3.40;;
74448;SDS011;62878;51.026;4.472;2022-11-14T10:46:46;6.03;;;3.42;;
74448;SDS011;62878;51.026;4.472;2022-11-14T10:49:16;4.45;;;3.10;;
74448;SDS011;62878;51.026;4.472;2022-11-14T10:51:51;5.97;;;2.67;;
74448;SDS011;62878;51.026;4.472;2022-11-14T10:57:14;4.72;;;2.97;;
74448;SDS011;62878;51.026;4.472;2022-11-14T10:59:42;7.85;;;3.25;;
74448;SDS011;62878;51.026;4.472;2022-11-14T11:02:07;7.38;;;3.40;;
74448;SDS011;62878;51.026;4.472;2022-11-14T11:04:34;6.45;;;3.42;;
74448;SDS011;62878;51.026;4.472;2022-11-14T11:09:34;7.35;;;3.92;;
74448;SDS011;62878;51.026;4.472;2022-11-14T11:12:20;4.80;;;3.28;;
74448;SDS011;62878;51.026;4.472;2022-11-14T11:14:48;3.60;;;2.85;;
74448;SDS011;62878;51.026;4.472;2022-11-14T11:17:33;4.25;;;2.88;;
74448;SDS011;62878;51.026;4.472;2022-11-14T11:20:41;6.15;;;2.78;;
74448;SDS011;62878;51.026;4.472;2022-11-14T11:22:48;4.88;;;3.00;;
74448;SDS011;62878;51.026;4.472;2022-11-14T11:25:50;5.90;;;3.47;;
74448;SDS011;62878;51.026;4.472;2022-11-14T11:30:37;5.57;;;2.45;;
74448;SDS011;62878;51.026;4.472;2022-11-14T11:33:22;3.90;;;2.50;;
74448;SDS011;62878;51.026;4.472;2022-11-14T11:35:51;3.55;;;2.50;;
74448;SDS011;62878;51.026;4.472;2022-11-14T11:38:19;3.70;;;2.85;;
74448;SDS011;62878;51.026;4.472;2022-11-14T11:40:49;3.85;;;2.45;;
74448;SDS011;62878;51.026;4.472;2022-11-14T11:46:07;4.05;;;2.25;;
74448;SDS011;62878;51.026;4.472;2022-11-14T11:48:43;4.00;;;2.63;;
74448;SDS011;62878;51.026;4.472;2022-11-14T11:51:14;5.85;;;2.70;;
74448;SDS011;62878;51.026;4.472;2022-11-14T11:53:55;5.22;;;2.35;;
74448;SDS011;62878;51.026;4.472;2022-11-14T11:56:25;6.25;;;3.40;;
74448;SDS011;62878;51.026;4.472;2022-11-14T11:58:56;3.75;;;2.47;;
74448;SDS011;62878;51.026;4.472;2022-11-14T12:01:29;3.25;;;1.95;;
74448;SDS011;62878;51.026;4.472;2022-11-14T12:03:54;4.60;;;2.63;;
74448;SDS011;62878;51.026;4.472;2022-11-14T12:06:20;4.82;;;2.08;;
74448;SDS011;62878;51.026;4.472;2022-11-14T12:11:39;5.70;;;2.22;;
74448;SDS011;62878;51.026;4.472;2022-11-14T12:19:39;2.83;;;1.73;;
74448;SDS011;62878;51.026;4.472;2022-11-14T12:30:50;9.80;;;5.70;;
74448;SDS011;62878;51.026;4.472;2022-11-14T12:33:29;14.68;;;6.65;;
74448;SDS011;62878;51.026;4.472;2022-11-14T12:36:03;13.02;;;6.25;;
74448;SDS011;62878;51.026;4.472;2022-11-14T12:38:39;8.40;;;5.28;;
74448;SDS011;62878;51.026;4.472;2022-11-14T12:41:07;10.13;;;5.80;;
74448;SDS011;62878;51.026;4.472;2022-11-14T12:43:34;10.82;;;5.68;;
74448;SDS011;62878;51.026;4.472;2022-11-14T12:46:06;6.65;;;4.25;;
74448;SDS011;62878;51.026;4.472;2022-11-14T12:48:42;7.20;;;4.10;;
74448;SDS011;62878;51.026;4.472;2022-11-14T12:53:52;7.85;;;4.22;;
74448;SDS011;62878;51.026;4.472;2022-11-14T13:01:53;15.80;;;9.60;;
74448;SDS011;62878;51.026;4.472;2022-11-14T13:13:07;14.82;;;9.23;;
74448;SDS011;62878;51.026;4.472;2022-11-14T13:15:56;17.83;;;9.25;;
74448;SDS011;62878;51.026;4.472;2022-11-14T13:19:17;15.00;;;9.25;;
74448;SDS011;62878;51.026;4.472;2022-11-14T13:27:27;15.07;;;8.48;;
74448;SDS011;62878;51.026;4.472;2022-11-14T13:29:54;11.02;;;7.43;;
74448;SDS011;62878;51.026;4.472;2022-11-14T13:35:19;16.75;;;8.43;;
74448;SDS011;62878;51.026;4.472;2022-11-14T13:40:32;13.93;;;7.22;;
74448;SDS011;62878;51.026;4.472;2022-11-14T13:50:50;8.90;;;6.57;;
74448;SDS011;62878;51.026;4.472;2022-11-14T13:53:23;15.25;;;9.27;;
74448;SDS011;62878;51.026;4.472;2022-11-14T13:55:53;17.50;;;9.68;;
74448;SDS011;62878;51.026;4.472;2022-11-14T14:06:52;15.15;;;9.20;;
74448;SDS011;62878;51.026;4.472;2022-11-14T14:14:56;14.07;;;8.00;;
74448;SDS011;62878;51.026;4.472;2022-11-14T14:17:46;10.15;;;6.25;;
74448;SDS011;62878;51.026;4.472;2022-11-14T14:20:21;11.27;;;7.10;;
74448;SDS011;62878;51.026;4.472;2022-11-14T14:26:00;8.65;;;6.03;;
74448;SDS011;62878;51.026;4.472;2022-11-14T14:31:33;11.30;;;6.65;;
74448;SDS011;62878;51.026;4.472;2022-11-14T14:34:19;8.80;;;5.97;;
74448;SDS011;62878;51.026;4.472;2022-11-14T14:36:52;9.32;;;6.10;;
74448;SDS011;62878;51.026;4.472;2022-11-14T14:39:20;9.05;;;5.10;;
74448;SDS011;62878;51.026;4.472;2022-11-14T14:41:50;7.72;;;5.10;;
74448;SDS011;62878;51.026;4.472;2022-11-14T14:47:22;9.85;;;5.68;;
74448;SDS011;62878;51.026;4.472;2022-11-14T14:49:53;7.40;;;4.80;;
74448;SDS011;62878;51.026;4.472;2022-11-14T14:54:59;8.25;;;4.13;;
74448;SDS011;62878;51.026;4.472;2022-11-14T14:57:27;9.25;;;5.35;;
74448;SDS011;62878;51.026;4.472;2022-11-14T14:59:57;16.25;;;10.25;;
74448;SDS011;62878;51.026;4.472;2022-11-14T15:02:24;13.10;;;7.88;;
74448;SDS011;62878;51.026;4.472;2022-11-14T15:04:50;11.70;;;7.63;;
74448;SDS011;62878;51.026;4.472;2022-11-14T15:07:19;11.65;;;7.97;;
74448;SDS011;62878;51.026;4.472;2022-11-14T15:09:51;9.70;;;6.68;;
74448;SDS011;62878;51.026;4.472;2022-11-14T15:12:22;13.87;;;7.10;;
74448;SDS011;62878;51.026;4.472;2022-11-14T15:14:48;9.52;;;7.32;;
74448;SDS011;62878;51.026;4.472;2022-11-14T15:17:14;11.38;;;6.60;;
74448;SDS011;62878;51.026;4.472;2022-11-14T15:19:41;9.55;;;6.60;;
74448;SDS011;62878;51.026;4.472;2022-11-14T15:24:41;10.63;;;6.50;;
74448;SDS011;62878;51.026;4.472;2022-11-14T15:27:12;7.78;;;5.63;;
74448;SDS011;62878;51.026;4.472;2022-11-14T15:29:49;8.77;;;5.50;;
74448;SDS011;62878;51.026;4.472;2022-11-14T15:32:20;7.07;;;5.07;;
74448;SDS011;62878;51.026;4.472;2022-11-14T15:40:36;10.65;;;5.10;;
74448;SDS011;62878;51.026;4.472;2022-11-14T15:45:59;8.13;;;5.22;;
74448;SDS011;62878;51.026;4.472;2022-11-14T15:48:24;9.55;;;5.13;;
74448;SDS011;62878;51.026;4.472;2022-11-14T15:50:50;5.20;;;3.70;;
74448;SDS011;62878;51.026;4.472;2022-11-14T15:53:17;6.03;;;4.28;;
74448;SDS011;62878;51.026;4.472;2022-11-14T15:55:49;5.82;;;4.38;;
74448;SDS011;62878;51.026;4.472;2022-11-14T15:58:14;6.88;;;4.38;;
74448;SDS011;62878;51.026;4.472;2022-11-14T16:00:42;5.85;;;4.18;;
74448;SDS011;62878;51.026;4.472;2022-11-14T16:03:10;7.25;;;4.25;;
74448;SDS011;62878;51.026;4.472;2022-11-14T16:05:39;7.72;;;4.55;;
74448;SDS011;62878;51.026;4.472;2022-11-14T16:08:04;6.30;;;4.07;;
74448;SDS011;62878;51.026;4.472;2022-11-14T16:10:30;14.27;;;8.52;;
74448;SDS011;62878;51.026;4.472;2022-11-14T16:12:55;12.77;;;8.77;;
74448;SDS011;62878;51.026;4.472;2022-11-14T16:15:20;16.05;;;7.53;;
74448;SDS011;62878;51.026;4.472;2022-11-14T16:17:47;11.52;;;7.25;;
74448;SDS011;62878;51.026;4.472;2022-11-14T16:20:21;9.80;;;6.15;;
74448;SDS011;62878;51.026;4.472;2022-11-14T16:22:48;13.40;;;6.63;;
74448;SDS011;62878;51.026;4.472;2022-11-14T16:25:18;12.13;;;6.18;;
74448;SDS011;62878;51.026;4.472;2022-11-14T16:27:46;8.77;;;5.45;;
74448;SDS011;62878;51.026;4.472;2022-11-14T16:30:13;9.50;;;6.28;;
74448;SDS011;62878;51.026;4.472;2022-11-14T16:32:41;8.32;;;4.72;;
74448;SDS011;62878;51.026;4.472;2022-11-14T16:35:14;8.18;;;5.13;;
74448;SDS011;62878;51.026;4.472;2022-11-14T16:37:42;8.10;;;4.55;;
74448;SDS011;62878;51.026;4.472;2022-11-14T16:40:14;8.65;;;5.55;;
74448;SDS011;62878;51.026;4.472;2022-11-14T16:42:43;8.07;;;4.85;;
74448;SDS011;62878;51.026;4.472;2022-11-14T16:45:09;8.00;;;5.20;;
74448;SDS011;62878;51.026;4.472;2022-11-14T16:47:35;8.23;;;4.90;;
74448;SDS011;62878;51.026;4.472;2022-11-14T16:50:00;7.68;;;4.57;;
74448;SDS011;62878;51.026;4.472;2022-11-14T16:52:26;8.27;;;4.88;;
74448;SDS011;62878;51.026;4.472;2022-11-14T16:54:51;8.80;;;5.28;;
74448;SDS011;62878;51.026;4.472;2022-11-14T16:57:17;6.43;;;4.22;;
74448;SDS011;62878;51.026;4.472;2022-11-14T16:59:42;10.52;;;5.13;;
74448;SDS011;62878;51.026;4.472;2022-11-14T17:02:14;6.55;;;4.88;;
74448;SDS011;62878;51.026;4.472;2022-11-14T17:04:40;6.38;;;4.90;;